sensor_id;sensor_type;location;lat;lon;timestamp;temperature;humidity
14487;DHT22;7329;50.866;4.366;2022-11-15T00:01:42;19.40;99.90
14487;DHT22;7329;50.866;4.366;2022-11-15T00:03:44;19.40;99.90
14487;DHT22;7329;50.866;4.366;2022-11-15T00:05:47;19.40;99.90
14487;DHT22;7329;50.866;4.366;2022-11-15T00:07:51;19.40;99.90
14487;DHT22;7329;50.866;4.366;2022-11-15T00:09:53;19.40;99.90
14487;DHT22;7329;50.866;4.366;2022-11-15T00:11:56;19.40;99.90
14487;DHT22;7329;50.866;4.366;2022-11-15T00:13:58;19.40;99.90
14487;DHT22;7329;50.866;4.366;2022-11-15T00:16:04;19.30;99.90
14487;DHT22;7329;50.866;4.366;2022-11-15T00:18:12;19.40;99.90
14487;DHT22;7329;50.866;4.366;2022-11-15T00:20:15;19.40;99.90
14487;DHT22;7329;50.866;4.366;2022-11-15T00:22:17;19.40;99.90
14487;DHT22;7329;50.866;4.366;2022-11-15T00:24:21;19.40;99.90
14487;DHT22;7329;50.866;4.366;2022-11-15T00:26:23;19.30;99.90
14487;DHT22;7329;50.866;4.366;2022-11-15T00:28:26;19.30;99.90
14487;DHT22;7329;50.866;4.366;2022-11-15T00:30:28;19.30;99.90
14487;DHT22;7329;50.866;4.366;2022-11-15T00:32:31;19.30;99.90
14487;DHT22;7329;50.866;4.366;2022-11-15T00:34:33;19.30;99.90
14487;DHT22;7329;50.866;4.366;2022-11-15T00:36:36;19.30;99.90
14487;DHT22;7329;50.866;4.366;2022-11-15T00:38:39;19.30;99.90
14487;DHT22;7329;50.866;4.366;2022-11-15T00:40:43;19.30;99.90
14487;DHT22;7329;50.866;4.366;2022-11-15T00:42:45;19.30;99.90
14487;DHT22;7329;50.866;4.366;2022-11-15T00:44:48;19.30;99.90
14487;DHT22;7329;50.866;4.366;2022-11-15T00:46:50;19.30;99.90
14487;DHT22;7329;50.866;4.366;2022-11-15T00:48:52;19.30;99.90
14487;DHT22;7329;50.866;4.366;2022-11-15T00:50:55;19.30;99.90
14487;DHT22;7329;50.866;4.366;2022-11-15T00:52:57;19.30;99.90
14487;DHT22;7329;50.866;4.366;2022-11-15T00:54:59;19.30;99.90
14487;DHT22;7329;50.866;4.366;2022-11-15T00:57:03;19.30;99.90
14487;DHT22;7329;50.866;4.366;2022-11-15T00:59:05;19.30;99.90
14487;DHT22;7329;50.866;4.366;2022-11-15T01:01:09;19.30;99.90
14487;DHT22;7329;50.866;4.366;2022-11-15T01:03:12;19.30;99.90
14487;DHT22;7329;50.866;4.366;2022-11-15T01:05:14;19.30;99.90
14487;DHT22;7329;50.866;4.366;2022-11-15T01:07:20;19.30;99.90
14487;DHT22;7329;50.866;4.366;2022-11-15T01:09:22;19.30;99.90
14487;DHT22;7329;50.866;4.366;2022-11-15T01:11:24;19.30;99.90
14487;DHT22;7329;50.866;4.366;2022-11-15T01:13:29;19.30;99.90
14487;DHT22;7329;50.866;4.366;2022-11-15T01:15:32;19.30;99.90
14487;DHT22;7329;50.866;4.366;2022-11-15T01:17:34;19.30;99.90
14487;DHT22;7329;50.866;4.366;2022-11-15T01:19:36;19.30;99.90
14487;DHT22;7329;50.866;4.366;2022-11-15T01:21:38;19.30;99.90
14487;DHT22;7329;50.866;4.366;2022-11-15T01:23:41;19.30;99.90
14487;DHT22;7329;50.866;4.366;2022-11-15T01:25:43;19.30;99.90
14487;DHT22;7329;50.866;4.366;2022-11-15T01:27:46;19.30;99.90
14487;DHT22;7329;50.866;4.366;2022-11-15T01:29:49;19.30;99.90
14487;DHT22;7329;50.866;4.366;2022-11-15T01:31:52;19.30;99.90
14487;DHT22;7329;50.866;4.366;2022-11-15T01:33:55;19.30;99.90
14487;DHT22;7329;50.866;4.366;2022-11-15T01:35:57;19.30;99.90
14487;DHT22;7329;50.866;4.366;2022-11-15T01:38:00;19.30;99.90
14487;DHT22;7329;50.866;4.366;2022-11-15T01:40:02;19.30;99.90
14487;DHT22;7329;50.866;4.366;2022-11-15T01:42:05;19.20;99.90
14487;DHT22;7329;50.866;4.366;2022-11-15T01:46:47;19.20;99.90
14487;DHT22;7329;50.866;4.366;2022-11-15T01:48:50;19.20;99.90
14487;DHT22;7329;50.866;4.366;2022-11-15T01:50:53;19.20;99.90
14487;DHT22;7329;50.866;4.366;2022-11-15T01:52:55;19.20;99.90
14487;DHT22;7329;50.866;4.366;2022-11-15T01:55:02;19.30;99.90
14487;DHT22;7329;50.866;4.366;2022-11-15T01:57:08;19.20;99.90
14487;DHT22;7329;50.866;4.366;2022-11-15T01:59:11;19.20;99.90
14487;DHT22;7329;50.866;4.366;2022-11-15T02:01:14;19.20;99.90
14487;DHT22;7329;50.866;4.366;2022-11-15T02:03:18;19.20;99.90
14487;DHT22;7329;50.866;4.366;2022-11-15T02:05:21;19.20;99.90
14487;DHT22;7329;50.866;4.366;2022-11-15T02:07:23;19.20;99.90
14487;DHT22;7329;50.866;4.366;2022-11-15T02:09:25;19.20;99.90
14487;DHT22;7329;50.866;4.366;2022-11-15T02:11:28;19.20;99.90
14487;DHT22;7329;50.866;4.366;2022-11-15T02:13:30;19.20;99.90
14487;DHT22;7329;50.866;4.366;2022-11-15T02:15:37;19.30;99.90
14487;DHT22;7329;50.866;4.366;2022-11-15T02:17:52;19.20;99.90
14487;DHT22;7329;50.866;4.366;2022-11-15T02:20:27;19.20;99.90
14487;DHT22;7329;50.866;4.366;2022-11-15T02:22:37;19.20;99.90
14487;DHT22;7329;50.866;4.366;2022-11-15T02:24:54;19.20;99.90
14487;DHT22;7329;50.866;4.366;2022-11-15T02:27:19;19.20;99.90
14487;DHT22;7329;50.866;4.366;2022-11-15T02:29:37;19.10;99.90
14487;DHT22;7329;50.866;4.366;2022-11-15T02:31:51;19.10;99.90
14487;DHT22;7329;50.866;4.366;2022-11-15T02:34:02;19.20;99.90
14487;DHT22;7329;50.866;4.366;2022-11-15T02:36:11;19.10;99.90
14487;DHT22;7329;50.866;4.366;2022-11-15T02:38:21;19.10;99.90
14487;DHT22;7329;50.866;4.366;2022-11-15T02:40:34;19.10;99.90
14487;DHT22;7329;50.866;4.366;2022-11-15T02:42:41;19.10;99.90
14487;DHT22;7329;50.866;4.366;2022-11-15T02:45:07;19.10;99.90
14487;DHT22;7329;50.866;4.366;2022-11-15T02:47:14;19.10;99.90
14487;DHT22;7329;50.866;4.366;2022-11-15T02:49:19;19.10;99.90
14487;DHT22;7329;50.866;4.366;2022-11-15T02:51:21;19.10;99.90
14487;DHT22;7329;50.866;4.366;2022-11-15T02:53:24;19.10;99.90
14487;DHT22;7329;50.866;4.366;2022-11-15T02:55:29;19.10;99.90
14487;DHT22;7329;50.866;4.366;2022-11-15T02:57:41;19.10;99.90
14487;DHT22;7329;50.866;4.366;2022-11-15T03:00:07;19.10;99.90
14487;DHT22;7329;50.866;4.366;2022-11-15T03:02:20;19.10;99.90
14487;DHT22;7329;50.866;4.366;2022-11-15T03:04:34;19.10;99.90
14487;DHT22;7329;50.866;4.366;2022-11-15T03:06:42;19.10;99.90
14487;DHT22;7329;50.866;4.366;2022-11-15T03:08:52;19.10;99.90
14487;DHT22;7329;50.866;4.366;2022-11-15T03:11:03;19.10;99.90
14487;DHT22;7329;50.866;4.366;2022-11-15T03:13:16;19.10;99.90
14487;DHT22;7329;50.866;4.366;2022-11-15T03:15:26;19.10;99.90
14487;DHT22;7329;50.866;4.366;2022-11-15T03:17:33;19.10;99.90
14487;DHT22;7329;50.866;4.366;2022-11-15T03:19:42;19.10;99.90
14487;DHT22;7329;50.866;4.366;2022-11-15T03:21:47;19.10;99.90
14487;DHT22;7329;50.866;4.366;2022-11-15T03:23:50;19.10;99.90
14487;DHT22;7329;50.866;4.366;2022-11-15T03:25:55;19.10;99.90
14487;DHT22;7329;50.866;4.366;2022-11-15T03:28:01;19.10;99.90
14487;DHT22;7329;50.866;4.366;2022-11-15T03:30:07;19.10;99.90
14487;DHT22;7329;50.866;4.366;2022-11-15T03:32:12;19.10;99.90
14487;DHT22;7329;50.866;4.366;2022-11-15T03:34:24;19.10;99.90
14487;DHT22;7329;50.866;4.366;2022-11-15T03:36:27;19.10;99.90
14487;DHT22;7329;50.866;4.366;2022-11-15T03:38:31;19.10;99.90
14487;DHT22;7329;50.866;4.366;2022-11-15T03:40:38;19.10;99.90
14487;DHT22;7329;50.866;4.366;2022-11-15T03:42:45;19.10;99.90
14487;DHT22;7329;50.866;4.366;2022-11-15T03:44:54;19.10;99.90
14487;DHT22;7329;50.866;4.366;2022-11-15T03:47:00;19.10;99.90
14487;DHT22;7329;50.866;4.366;2022-11-15T03:49:07;19.00;99.90
14487;DHT22;7329;50.866;4.366;2022-11-15T03:51:12;19.10;99.90
14487;DHT22;7329;50.866;4.366;2022-11-15T03:53:14;19.00;99.90
14487;DHT22;7329;50.866;4.366;2022-11-15T03:55:18;19.10;99.90
14487;DHT22;7329;50.866;4.366;2022-11-15T03:57:21;19.00;99.90
14487;DHT22;7329;50.866;4.366;2022-11-15T03:59:23;19.00;99.90
14487;DHT22;7329;50.866;4.366;2022-11-15T04:01:26;19.00;99.90
14487;DHT22;7329;50.866;4.366;2022-11-15T04:03:28;19.10;99.90
14487;DHT22;7329;50.866;4.366;2022-11-15T04:05:30;19.00;99.90
14487;DHT22;7329;50.866;4.366;2022-11-15T04:07:34;19.00;99.90
14487;DHT22;7329;50.866;4.366;2022-11-15T04:09:36;19.00;99.90
14487;DHT22;7329;50.866;4.366;2022-11-15T04:11:59;19.00;99.90
14487;DHT22;7329;50.866;4.366;2022-11-15T04:14:02;19.00;99.90
14487;DHT22;7329;50.866;4.366;2022-11-15T04:16:04;19.00;99.90
14487;DHT22;7329;50.866;4.366;2022-11-15T04:18:06;19.00;99.90
14487;DHT22;7329;50.866;4.366;2022-11-15T04:20:14;19.00;99.90
14487;DHT22;7329;50.866;4.366;2022-11-15T04:22:36;19.00;99.90
14487;DHT22;7329;50.866;4.366;2022-11-15T04:24:56;19.00;99.90
14487;DHT22;7329;50.866;4.366;2022-11-15T04:26:58;19.00;99.90
14487;DHT22;7329;50.866;4.366;2022-11-15T04:29:00;19.00;99.90
14487;DHT22;7329;50.866;4.366;2022-11-15T04:31:20;19.00;99.90
14487;DHT22;7329;50.866;4.366;2022-11-15T04:33:22;19.00;99.90
14487;DHT22;7329;50.866;4.366;2022-11-15T04:35:25;19.00;99.90
14487;DHT22;7329;50.866;4.366;2022-11-15T04:37:27;19.00;99.90
14487;DHT22;7329;50.866;4.366;2022-11-15T04:39:47;19.00;99.90
14487;DHT22;7329;50.866;4.366;2022-11-15T04:41:49;19.00;99.90
14487;DHT22;7329;50.866;4.366;2022-11-15T04:43:52;18.90;99.90
14487;DHT22;7329;50.866;4.366;2022-11-15T04:45:54;19.00;99.90
14487;DHT22;7329;50.866;4.366;2022-11-15T04:47:57;19.00;99.90
14487;DHT22;7329;50.866;4.366;2022-11-15T04:49:59;18.90;99.90
14487;DHT22;7329;50.866;4.366;2022-11-15T04:52:01;18.90;99.90
14487;DHT22;7329;50.866;4.366;2022-11-15T04:54:04;18.90;99.90
14487;DHT22;7329;50.866;4.366;2022-11-15T04:56:08;18.90;99.90
14487;DHT22;7329;50.866;4.366;2022-11-15T04:58:12;18.90;99.90
14487;DHT22;7329;50.866;4.366;2022-11-15T05:00:16;18.90;99.90
14487;DHT22;7329;50.866;4.366;2022-11-15T05:02:18;18.90;99.90
14487;DHT22;7329;50.866;4.366;2022-11-15T05:04:21;18.90;99.90
14487;DHT22;7329;50.866;4.366;2022-11-15T05:06:22;18.90;99.90
14487;DHT22;7329;50.866;4.366;2022-11-15T05:08:24;18.90;99.90
14487;DHT22;7329;50.866;4.366;2022-11-15T05:10:27;18.90;99.90
14487;DHT22;7329;50.866;4.366;2022-11-15T05:12:30;18.90;99.90
14487;DHT22;7329;50.866;4.366;2022-11-15T05:14:32;18.90;99.90
14487;DHT22;7329;50.866;4.366;2022-11-15T05:16:35;18.90;99.90
14487;DHT22;7329;50.866;4.366;2022-11-15T05:18:38;18.90;99.90
14487;DHT22;7329;50.866;4.366;2022-11-15T05:20:41;18.90;99.90
14487;DHT22;7329;50.866;4.366;2022-11-15T05:22:43;18.90;99.90
14487;DHT22;7329;50.866;4.366;2022-11-15T05:24:46;18.90;99.90
14487;DHT22;7329;50.866;4.366;2022-11-15T05:26:48;18.80;99.90
14487;DHT22;7329;50.866;4.366;2022-11-15T05:28:54;18.90;99.90
14487;DHT22;7329;50.866;4.366;2022-11-15T05:31:00;18.80;99.90
14487;DHT22;7329;50.866;4.366;2022-11-15T05:33:03;18.90;99.90
14487;DHT22;7329;50.866;4.366;2022-11-15T05:35:07;18.80;99.90
14487;DHT22;7329;50.866;4.366;2022-11-15T05:37:10;18.80;99.90
14487;DHT22;7329;50.866;4.366;2022-11-15T05:39:14;18.80;99.90
14487;DHT22;7329;50.866;4.366;2022-11-15T05:41:20;18.80;99.90
14487;DHT22;7329;50.866;4.366;2022-11-15T05:43:23;18.80;99.90
14487;DHT22;7329;50.866;4.366;2022-11-15T05:45:28;18.80;99.90
14487;DHT22;7329;50.866;4.366;2022-11-15T05:47:30;18.80;99.90
14487;DHT22;7329;50.866;4.366;2022-11-15T05:49:35;18.80;99.90
14487;DHT22;7329;50.866;4.366;2022-11-15T05:51:39;18.80;99.90
14487;DHT22;7329;50.866;4.366;2022-11-15T05:53:41;18.80;99.90
14487;DHT22;7329;50.866;4.366;2022-11-15T05:55:44;18.80;99.90
14487;DHT22;7329;50.866;4.366;2022-11-15T05:57:47;18.80;99.90
14487;DHT22;7329;50.866;4.366;2022-11-15T05:59:49;18.80;99.90
14487;DHT22;7329;50.866;4.366;2022-11-15T06:01:53;18.80;99.90
14487;DHT22;7329;50.866;4.366;2022-11-15T06:03:55;18.80;99.90
14487;DHT22;7329;50.866;4.366;2022-11-15T06:05:58;18.80;99.90
14487;DHT22;7329;50.866;4.366;2022-11-15T06:08:00;18.80;99.90
14487;DHT22;7329;50.866;4.366;2022-11-15T06:10:03;18.90;99.90
14487;DHT22;7329;50.866;4.366;2022-11-15T06:12:06;18.90;99.90
14487;DHT22;7329;50.866;4.366;2022-11-15T06:14:08;18.90;99.90
14487;DHT22;7329;50.866;4.366;2022-11-15T06:16:10;18.90;99.90
14487;DHT22;7329;50.866;4.366;2022-11-15T06:18:14;18.90;99.90
14487;DHT22;7329;50.866;4.366;2022-11-15T06:20:17;18.90;99.90
14487;DHT22;7329;50.866;4.366;2022-11-15T06:22:19;18.90;99.90
14487;DHT22;7329;50.866;4.366;2022-11-15T06:24:21;18.90;99.90
14487;DHT22;7329;50.866;4.366;2022-11-15T06:26:24;18.90;99.90
14487;DHT22;7329;50.866;4.366;2022-11-15T06:28:28;19.00;99.90
14487;DHT22;7329;50.866;4.366;2022-11-15T06:30:31;19.00;99.90
14487;DHT22;7329;50.866;4.366;2022-11-15T06:32:33;19.00;99.90
14487;DHT22;7329;50.866;4.366;2022-11-15T06:34:37;19.00;99.90
14487;DHT22;7329;50.866;4.366;2022-11-15T06:36:39;19.00;99.90
14487;DHT22;7329;50.866;4.366;2022-11-15T06:38:41;19.10;99.90
14487;DHT22;7329;50.866;4.366;2022-11-15T06:40:44;19.10;99.90
14487;DHT22;7329;50.866;4.366;2022-11-15T06:42:46;19.00;99.90
14487;DHT22;7329;50.866;4.366;2022-11-15T06:44:48;19.10;99.90
14487;DHT22;7329;50.866;4.366;2022-11-15T06:46:50;19.10;99.90
14487;DHT22;7329;50.866;4.366;2022-11-15T06:48:53;19.10;99.90
14487;DHT22;7329;50.866;4.366;2022-11-15T06:50:58;19.10;99.90
14487;DHT22;7329;50.866;4.366;2022-11-15T06:53:03;19.10;99.90
14487;DHT22;7329;50.866;4.366;2022-11-15T06:55:07;19.10;99.90
14487;DHT22;7329;50.866;4.366;2022-11-15T06:57:09;19.10;99.90
14487;DHT22;7329;50.866;4.366;2022-11-15T06:59:12;19.10;99.90
14487;DHT22;7329;50.866;4.366;2022-11-15T07:01:14;19.20;99.90
14487;DHT22;7329;50.866;4.366;2022-11-15T07:03:16;19.20;99.90
14487;DHT22;7329;50.866;4.366;2022-11-15T07:05:19;19.20;99.90
14487;DHT22;7329;50.866;4.366;2022-11-15T07:07:22;19.20;99.90
14487;DHT22;7329;50.866;4.366;2022-11-15T07:09:25;19.30;99.90
14487;DHT22;7329;50.866;4.366;2022-11-15T07:11:27;19.30;99.90
14487;DHT22;7329;50.866;4.366;2022-11-15T07:13:31;19.30;99.90
14487;DHT22;7329;50.866;4.366;2022-11-15T07:15:34;19.30;99.90
14487;DHT22;7329;50.866;4.366;2022-11-15T07:17:36;19.30;99.90
14487;DHT22;7329;50.866;4.366;2022-11-15T07:19:39;19.30;99.90
14487;DHT22;7329;50.866;4.366;2022-11-15T07:21:41;19.30;99.90
14487;DHT22;7329;50.866;4.366;2022-11-15T07:23:45;19.40;99.90
14487;DHT22;7329;50.866;4.366;2022-11-15T07:25:47;19.40;99.90
14487;DHT22;7329;50.866;4.366;2022-11-15T07:27:54;19.40;99.90
14487;DHT22;7329;50.866;4.366;2022-11-15T07:29:57;19.40;99.90
14487;DHT22;7329;50.866;4.366;2022-11-15T07:31:59;19.40;99.90
14487;DHT22;7329;50.866;4.366;2022-11-15T07:34:01;19.40;99.90
14487;DHT22;7329;50.866;4.366;2022-11-15T07:36:05;19.40;99.90
14487;DHT22;7329;50.866;4.366;2022-11-15T07:38:08;19.40;99.90
14487;DHT22;7329;50.866;4.366;2022-11-15T07:40:12;19.50;99.90
14487;DHT22;7329;50.866;4.366;2022-11-15T07:42:15;19.50;99.90
14487;DHT22;7329;50.866;4.366;2022-11-15T07:44:34;19.50;99.90
14487;DHT22;7329;50.866;4.366;2022-11-15T07:46:37;19.50;99.90
14487;DHT22;7329;50.866;4.366;2022-11-15T07:48:39;19.50;99.90
14487;DHT22;7329;50.866;4.366;2022-11-15T07:50:42;19.50;99.90
14487;DHT22;7329;50.866;4.366;2022-11-15T07:52:44;19.50;99.90
14487;DHT22;7329;50.866;4.366;2022-11-15T07:54:47;19.50;99.90
14487;DHT22;7329;50.866;4.366;2022-11-15T07:56:51;19.40;99.90
14487;DHT22;7329;50.866;4.366;2022-11-15T07:58:53;19.50;99.90
14487;DHT22;7329;50.866;4.366;2022-11-15T08:00:55;19.60;99.90
14487;DHT22;7329;50.866;4.366;2022-11-15T08:03:05;19.60;99.90
14487;DHT22;7329;50.866;4.366;2022-11-15T08:05:08;19.70;99.90
14487;DHT22;7329;50.866;4.366;2022-11-15T08:07:10;19.60;99.90
14487;DHT22;7329;50.866;4.366;2022-11-15T08:09:13;19.70;99.90
14487;DHT22;7329;50.866;4.366;2022-11-15T08:11:15;19.70;99.90
14487;DHT22;7329;50.866;4.366;2022-11-15T08:13:19;19.80;99.90
14487;DHT22;7329;50.866;4.366;2022-11-15T08:15:22;19.80;99.90
14487;DHT22;7329;50.866;4.366;2022-11-15T08:17:24;19.80;99.90
14487;DHT22;7329;50.866;4.366;2022-11-15T08:19:27;19.90;99.90
14487;DHT22;7329;50.866;4.366;2022-11-15T08:21:29;19.90;99.90
14487;DHT22;7329;50.866;4.366;2022-11-15T08:23:31;19.80;99.90
14487;DHT22;7329;50.866;4.366;2022-11-15T08:25:34;19.90;99.90
14487;DHT22;7329;50.866;4.366;2022-11-15T08:27:37;19.90;99.90
14487;DHT22;7329;50.866;4.366;2022-11-15T08:29:41;19.90;99.90
14487;DHT22;7329;50.866;4.366;2022-11-15T08:31:44;19.80;99.90
14487;DHT22;7329;50.866;4.366;2022-11-15T08:33:46;19.80;99.90
14487;DHT22;7329;50.866;4.366;2022-11-15T08:35:48;19.80;99.90
14487;DHT22;7329;50.866;4.366;2022-11-15T08:37:52;19.80;99.90
14487;DHT22;7329;50.866;4.366;2022-11-15T08:39:55;19.80;99.90
14487;DHT22;7329;50.866;4.366;2022-11-15T08:41:57;19.80;99.90
14487;DHT22;7329;50.866;4.366;2022-11-15T08:43:59;19.90;99.90
14487;DHT22;7329;50.866;4.366;2022-11-15T08:46:03;20.00;99.90
14487;DHT22;7329;50.866;4.366;2022-11-15T08:48:05;20.10;99.90
14487;DHT22;7329;50.866;4.366;2022-11-15T08:50:08;20.10;99.90
14487;DHT22;7329;50.866;4.366;2022-11-15T08:52:11;20.10;99.90
14487;DHT22;7329;50.866;4.366;2022-11-15T08:54:13;20.10;99.90
14487;DHT22;7329;50.866;4.366;2022-11-15T08:56:15;20.20;99.90
14487;DHT22;7329;50.866;4.366;2022-11-15T08:58:18;20.20;99.90
14487;DHT22;7329;50.866;4.366;2022-11-15T09:00:20;20.20;99.90
14487;DHT22;7329;50.866;4.366;2022-11-15T09:02:24;20.30;99.90
14487;DHT22;7329;50.866;4.366;2022-11-15T09:04:28;20.30;99.90
14487;DHT22;7329;50.866;4.366;2022-11-15T09:06:30;20.30;99.90
14487;DHT22;7329;50.866;4.366;2022-11-15T09:08:33;20.30;99.90
14487;DHT22;7329;50.866;4.366;2022-11-15T09:10:35;20.30;99.90
14487;DHT22;7329;50.866;4.366;2022-11-15T09:12:37;20.30;99.90
14487;DHT22;7329;50.866;4.366;2022-11-15T09:14:40;20.30;99.90
14487;DHT22;7329;50.866;4.366;2022-11-15T09:16:42;20.20;99.90
14487;DHT22;7329;50.866;4.366;2022-11-15T09:18:46;20.30;99.90
14487;DHT22;7329;50.866;4.366;2022-11-15T09:20:48;20.30;99.90
14487;DHT22;7329;50.866;4.366;2022-11-15T09:22:50;20.30;99.90
14487;DHT22;7329;50.866;4.366;2022-11-15T09:24:52;20.40;99.90
14487;DHT22;7329;50.866;4.366;2022-11-15T09:26:55;20.40;99.90
14487;DHT22;7329;50.866;4.366;2022-11-15T09:28:58;20.40;99.90
14487;DHT22;7329;50.866;4.366;2022-11-15T09:31:04;20.40;99.90
14487;DHT22;7329;50.866;4.366;2022-11-15T09:33:07;20.50;99.90
14487;DHT22;7329;50.866;4.366;2022-11-15T09:35:11;20.40;99.90
14487;DHT22;7329;50.866;4.366;2022-11-15T09:37:13;20.50;99.90
14487;DHT22;7329;50.866;4.366;2022-11-15T09:39:15;20.50;99.90
14487;DHT22;7329;50.866;4.366;2022-11-15T09:41:30;20.50;99.90
14487;DHT22;7329;50.866;4.366;2022-11-15T09:43:44;20.50;99.90
14487;DHT22;7329;50.866;4.366;2022-11-15T09:45:57;20.50;99.90
14487;DHT22;7329;50.866;4.366;2022-11-15T09:48:29;20.60;99.90
14487;DHT22;7329;50.866;4.366;2022-11-15T09:50:41;20.70;99.90
14487;DHT22;7329;50.866;4.366;2022-11-15T09:52:48;20.80;99.90
14487;DHT22;7329;50.866;4.366;2022-11-15T09:54:52;20.90;99.90
14487;DHT22;7329;50.866;4.366;2022-11-15T09:56:56;20.90;99.90
14487;DHT22;7329;50.866;4.366;2022-11-15T09:59:15;20.80;99.90
14487;DHT22;7329;50.866;4.366;2022-11-15T10:01:28;20.90;99.90
14487;DHT22;7329;50.866;4.366;2022-11-15T10:03:35;21.00;99.90
14487;DHT22;7329;50.866;4.366;2022-11-15T10:05:42;21.00;99.90
14487;DHT22;7329;50.866;4.366;2022-11-15T10:07:50;21.00;99.90
14487;DHT22;7329;50.866;4.366;2022-11-15T10:09:59;21.00;99.90
14487;DHT22;7329;50.866;4.366;2022-11-15T10:12:04;21.00;99.90
14487;DHT22;7329;50.866;4.366;2022-11-15T10:14:11;21.00;99.90
14487;DHT22;7329;50.866;4.366;2022-11-15T10:16:26;21.10;99.90
14487;DHT22;7329;50.866;4.366;2022-11-15T10:18:35;21.10;99.90
14487;DHT22;7329;50.866;4.366;2022-11-15T10:20:48;21.10;99.90
14487;DHT22;7329;50.866;4.366;2022-11-15T10:22:52;21.20;99.90
14487;DHT22;7329;50.866;4.366;2022-11-15T10:25:20;21.20;99.90
14487;DHT22;7329;50.866;4.366;2022-11-15T10:27:23;21.30;99.90
14487;DHT22;7329;50.866;4.366;2022-11-15T10:29:26;21.40;99.90
14487;DHT22;7329;50.866;4.366;2022-11-15T10:31:29;21.40;99.90
14487;DHT22;7329;50.866;4.366;2022-11-15T10:33:32;21.30;99.90
14487;DHT22;7329;50.866;4.366;2022-11-15T10:35:35;21.40;99.90
14487;DHT22;7329;50.866;4.366;2022-11-15T10:37:39;21.40;99.90
14487;DHT22;7329;50.866;4.366;2022-11-15T10:39:41;21.50;99.90
14487;DHT22;7329;50.866;4.366;2022-11-15T10:41:47;21.50;99.90
14487;DHT22;7329;50.866;4.366;2022-11-15T10:44:12;21.60;99.90
14487;DHT22;7329;50.866;4.366;2022-11-15T10:46:19;21.60;99.90
14487;DHT22;7329;50.866;4.366;2022-11-15T10:48:24;21.60;99.90
14487;DHT22;7329;50.866;4.366;2022-11-15T10:50:29;21.60;99.90
14487;DHT22;7329;50.866;4.366;2022-11-15T10:52:33;21.60;99.90
14487;DHT22;7329;50.866;4.366;2022-11-15T10:54:42;21.70;99.90
14487;DHT22;7329;50.866;4.366;2022-11-15T10:56:49;21.60;99.90
14487;DHT22;7329;50.866;4.366;2022-11-15T10:58:54;21.60;99.90
14487;DHT22;7329;50.866;4.366;2022-11-15T11:01:09;21.70;99.90
14487;DHT22;7329;50.866;4.366;2022-11-15T11:03:29;21.60;99.90
14487;DHT22;7329;50.866;4.366;2022-11-15T11:05:32;21.70;99.90
14487;DHT22;7329;50.866;4.366;2022-11-15T11:07:35;21.70;99.90
14487;DHT22;7329;50.866;4.366;2022-11-15T11:09:39;21.70;99.90
14487;DHT22;7329;50.866;4.366;2022-11-15T11:11:48;21.60;99.90
14487;DHT22;7329;50.866;4.366;2022-11-15T11:13:50;21.70;99.90
14487;DHT22;7329;50.866;4.366;2022-11-15T11:15:56;21.70;99.90
14487;DHT22;7329;50.866;4.366;2022-11-15T11:18:06;21.80;99.90
14487;DHT22;7329;50.866;4.366;2022-11-15T11:20:18;21.80;99.90
14487;DHT22;7329;50.866;4.366;2022-11-15T11:22:26;21.90;99.90
14487;DHT22;7329;50.866;4.366;2022-11-15T11:24:36;21.90;99.90
14487;DHT22;7329;50.866;4.366;2022-11-15T11:26:49;22.00;99.90
14487;DHT22;7329;50.866;4.366;2022-11-15T11:29:02;22.00;99.90
14487;DHT22;7329;50.866;4.366;2022-11-15T11:31:17;22.00;99.90
14487;DHT22;7329;50.866;4.366;2022-11-15T11:33:22;22.00;99.90
14487;DHT22;7329;50.866;4.366;2022-11-15T11:35:32;22.00;99.90
14487;DHT22;7329;50.866;4.366;2022-11-15T11:37:43;22.10;99.90
14487;DHT22;7329;50.866;4.366;2022-11-15T11:39:56;22.10;99.90
14487;DHT22;7329;50.866;4.366;2022-11-15T11:42:10;22.10;99.90
14487;DHT22;7329;50.866;4.366;2022-11-15T11:44:25;22.10;99.90
14487;DHT22;7329;50.866;4.366;2022-11-15T11:46:48;22.10;99.90
14487;DHT22;7329;50.866;4.366;2022-11-15T11:48:55;22.10;99.90
14487;DHT22;7329;50.866;4.366;2022-11-15T11:51:05;22.10;99.90
14487;DHT22;7329;50.866;4.366;2022-11-15T11:53:13;22.10;99.90
14487;DHT22;7329;50.866;4.366;2022-11-15T11:55:20;22.20;99.90
14487;DHT22;7329;50.866;4.366;2022-11-15T11:57:32;22.20;99.90
14487;DHT22;7329;50.866;4.366;2022-11-15T11:59:39;22.20;99.90
14487;DHT22;7329;50.866;4.366;2022-11-15T12:01:45;22.30;99.90
14487;DHT22;7329;50.866;4.366;2022-11-15T12:03:51;22.30;99.90
14487;DHT22;7329;50.866;4.366;2022-11-15T12:05:57;22.30;99.90
14487;DHT22;7329;50.866;4.366;2022-11-15T12:08:11;22.30;99.90
14487;DHT22;7329;50.866;4.366;2022-11-15T12:10:21;22.40;99.90
14487;DHT22;7329;50.866;4.366;2022-11-15T12:12:31;22.30;99.90
14487;DHT22;7329;50.866;4.366;2022-11-15T12:14:42;22.40;99.90
14487;DHT22;7329;50.866;4.366;2022-11-15T12:16:45;22.40;99.90
14487;DHT22;7329;50.866;4.366;2022-11-15T12:18:49;22.50;99.90
14487;DHT22;7329;50.866;4.366;2022-11-15T12:20:55;22.50;99.90
14487;DHT22;7329;50.866;4.366;2022-11-15T12:23:03;22.50;99.90
14487;DHT22;7329;50.866;4.366;2022-11-15T12:25:13;22.50;99.90
14487;DHT22;7329;50.866;4.366;2022-11-15T12:27:19;22.50;99.90
14487;DHT22;7329;50.866;4.366;2022-11-15T12:29:33;22.60;99.90
14487;DHT22;7329;50.866;4.366;2022-11-15T12:31:39;22.50;99.90
14487;DHT22;7329;50.866;4.366;2022-11-15T12:33:43;22.60;99.90
14487;DHT22;7329;50.866;4.366;2022-11-15T12:35:59;22.60;99.90
14487;DHT22;7329;50.866;4.366;2022-11-15T12:38:02;22.60;99.90
14487;DHT22;7329;50.866;4.366;2022-11-15T12:40:20;22.60;99.90
14487;DHT22;7329;50.866;4.366;2022-11-15T12:42:39;22.60;99.90
14487;DHT22;7329;50.866;4.366;2022-11-15T12:44:58;22.60;99.90
14487;DHT22;7329;50.866;4.366;2022-11-15T12:47:04;22.70;99.90
14487;DHT22;7329;50.866;4.366;2022-11-15T12:49:42;22.60;99.90
14487;DHT22;7329;50.866;4.366;2022-11-15T12:52:03;22.70;99.90
14487;DHT22;7329;50.866;4.366;2022-11-15T12:56:42;22.60;99.90
14487;DHT22;7329;50.866;4.366;2022-11-15T12:58:46;22.70;99.90
14487;DHT22;7329;50.866;4.366;2022-11-15T13:00:50;22.60;99.90
14487;DHT22;7329;50.866;4.366;2022-11-15T13:03:22;22.60;99.90
14487;DHT22;7329;50.866;4.366;2022-11-15T13:08:03;22.70;99.90
14487;DHT22;7329;50.866;4.366;2022-11-15T13:10:30;22.70;99.90
14487;DHT22;7329;50.866;4.366;2022-11-15T13:12:55;22.70;99.90
14487;DHT22;7329;50.866;4.366;2022-11-15T13:14:58;22.70;99.90
14487;DHT22;7329;50.866;4.366;2022-11-15T13:17:02;22.70;99.90
14487;DHT22;7329;50.866;4.366;2022-11-15T13:19:05;22.70;99.90
14487;DHT22;7329;50.866;4.366;2022-11-15T13:21:22;22.70;99.90
14487;DHT22;7329;50.866;4.366;2022-11-15T13:23:42;22.70;99.90
14487;DHT22;7329;50.866;4.366;2022-11-15T13:28:21;22.60;99.90
14487;DHT22;7329;50.866;4.366;2022-11-15T13:30:25;22.70;99.90
14487;DHT22;7329;50.866;4.366;2022-11-15T13:32:30;22.70;99.90
14487;DHT22;7329;50.866;4.366;2022-11-15T13:34:33;22.70;99.90
14487;DHT22;7329;50.866;4.366;2022-11-15T13:36:37;22.70;99.90
14487;DHT22;7329;50.866;4.366;2022-11-15T13:38:40;22.60;99.90